sensor_id;sensor_type;location;lat;lon;timestamp;P1;durP1;ratioP1;P2;durP2;ratioP2
75402;SDS011;63975;47.538;18.972;2022-10-19T00:00:36;3.97;;;3.57;;
75402;SDS011;63975;47.538;18.972;2022-10-19T00:03:38;3.60;;;3.30;;
75402;SDS011;63975;47.538;18.972;2022-10-19T00:06:41;4.68;;;4.07;;
75402;SDS011;63975;47.538;18.972;2022-10-19T00:09:45;5.05;;;3.83;;
75402;SDS011;63975;47.538;18.972;2022-10-19T00:12:47;4.65;;;3.95;;
75402;SDS011;63975;47.538;18.972;2022-10-19T00:15:54;4.43;;;3.90;;
75402;SDS011;63975;47.538;18.972;2022-10-19T00:18:57;5.10;;;4.05;;
75402;SDS011;63975;47.538;18.972;2022-10-19T00:22:00;4.40;;;3.88;;
75402;SDS011;63975;47.538;18.972;2022-10-19T00:25:03;4.30;;;3.90;;
75402;SDS011;63975;47.538;18.972;2022-10-19T00:28:05;4.25;;;3.80;;
75402;SDS011;63975;47.538;18.972;2022-10-19T00:31:09;4.43;;;4.03;;
75402;SDS011;63975;47.538;18.972;2022-10-19T00:34:13;3.90;;;3.50;;
75402;SDS011;63975;47.538;18.972;2022-10-19T00:37:16;4.30;;;3.90;;
75402;SDS011;63975;47.538;18.972;2022-10-19T00:40:18;4.50;;;3.78;;
75402;SDS011;63975;47.538;18.972;2022-10-19T00:43:21;4.35;;;3.65;;
75402;SDS011;63975;47.538;18.972;2022-10-19T00:46:27;4.50;;;4.10;;
75402;SDS011;63975;47.538;18.972;2022-10-19T00:49:32;4.28;;;3.88;;
75402;SDS011;63975;47.538;18.972;2022-10-19T00:52:38;4.88;;;3.90;;
75402;SDS011;63975;47.538;18.972;2022-10-19T00:55:41;4.45;;;4.05;;
75402;SDS011;63975;47.538;18.972;2022-10-19T00:58:44;4.13;;;3.80;;
75402;SDS011;63975;47.538;18.972;2022-10-19T01:01:47;4.30;;;3.90;;
75402;SDS011;63975;47.538;18.972;2022-10-19T01:04:50;4.47;;;3.88;;
75402;SDS011;63975;47.538;18.972;2022-10-19T01:07:53;4.20;;;3.80;;
75402;SDS011;63975;47.538;18.972;2022-10-19T01:21:23;4.10;;;3.80;;
75402;SDS011;63975;47.538;18.972;2022-10-19T01:28:00;4.20;;;3.80;;
75402;SDS011;63975;47.538;18.972;2022-10-19T01:34:54;4.10;;;3.80;;
75402;SDS011;63975;47.538;18.972;2022-10-19T01:38:21;4.03;;;3.60;;
75402;SDS011;63975;47.538;18.972;2022-10-19T01:41:41;4.32;;;3.95;;
75402;SDS011;63975;47.538;18.972;2022-10-19T01:45:05;4.15;;;3.58;;
75402;SDS011;63975;47.538;18.972;2022-10-19T01:48:21;4.53;;;3.70;;
75402;SDS011;63975;47.538;18.972;2022-10-19T01:51:30;4.00;;;3.47;;
75402;SDS011;63975;47.538;18.972;2022-10-19T01:54:37;3.80;;;3.50;;
75402;SDS011;63975;47.538;18.972;2022-10-19T01:57:45;4.40;;;4.00;;
75402;SDS011;63975;47.538;18.972;2022-10-19T02:00:49;4.28;;;3.88;;
75402;SDS011;63975;47.538;18.972;2022-10-19T02:03:54;4.35;;;3.95;;
75402;SDS011;63975;47.538;18.972;2022-10-19T02:07:00;4.77;;;3.73;;
75402;SDS011;63975;47.538;18.972;2022-10-19T02:10:03;4.03;;;3.63;;
75402;SDS011;63975;47.538;18.972;2022-10-19T02:13:06;4.32;;;3.92;;
75402;SDS011;63975;47.538;18.972;2022-10-19T02:16:16;4.00;;;3.60;;
75402;SDS011;63975;47.538;18.972;2022-10-19T02:19:24;4.05;;;3.65;;
75402;SDS011;63975;47.538;18.972;2022-10-19T02:22:26;5.00;;;3.70;;
75402;SDS011;63975;47.538;18.972;2022-10-19T02:25:31;4.70;;;3.60;;
75402;SDS011;63975;47.538;18.972;2022-10-19T02:28:34;4.70;;;4.03;;
75402;SDS011;63975;47.538;18.972;2022-10-19T02:31:37;4.45;;;3.80;;
75402;SDS011;63975;47.538;18.972;2022-10-19T02:34:40;5.38;;;3.85;;
75402;SDS011;63975;47.538;18.972;2022-10-19T02:37:42;3.77;;;3.40;;
75402;SDS011;63975;47.538;18.972;2022-10-19T02:44:22;4.63;;;4.22;;
75402;SDS011;63975;47.538;18.972;2022-10-19T02:47:29;4.07;;;3.67;;
75402;SDS011;63975;47.538;18.972;2022-10-19T02:50:36;4.57;;;4.18;;
75402;SDS011;63975;47.538;18.972;2022-10-19T02:53:39;4.10;;;3.80;;
75402;SDS011;63975;47.538;18.972;2022-10-19T02:56:41;4.68;;;3.90;;
75402;SDS011;63975;47.538;18.972;2022-10-19T02:59:44;4.57;;;4.18;;
75402;SDS011;63975;47.538;18.972;2022-10-19T03:02:46;3.97;;;3.58;;
75402;SDS011;63975;47.538;18.972;2022-10-19T03:05:49;4.32;;;3.92;;
75402;SDS011;63975;47.538;18.972;2022-10-19T03:08:51;4.07;;;3.67;;
75402;SDS011;63975;47.538;18.972;2022-10-19T03:11:56;3.85;;;3.53;;
75402;SDS011;63975;47.538;18.972;2022-10-19T03:14:59;4.38;;;3.97;;
75402;SDS011;63975;47.538;18.972;2022-10-19T03:18:01;4.65;;;3.92;;
75402;SDS011;63975;47.538;18.972;2022-10-19T03:21:05;4.28;;;3.63;;
75402;SDS011;63975;47.538;18.972;2022-10-19T03:24:12;3.50;;;3.20;;
75402;SDS011;63975;47.538;18.972;2022-10-19T03:27:14;4.05;;;3.47;;
75402;SDS011;63975;47.538;18.972;2022-10-19T03:30:16;4.10;;;3.80;;
75402;SDS011;63975;47.538;18.972;2022-10-19T03:33:19;3.83;;;3.53;;
75402;SDS011;63975;47.538;18.972;2022-10-19T03:39:24;3.90;;;3.60;;
75402;SDS011;63975;47.538;18.972;2022-10-19T03:42:27;3.85;;;3.55;;
75402;SDS011;63975;47.538;18.972;2022-10-19T03:45:29;4.25;;;3.75;;
75402;SDS011;63975;47.538;18.972;2022-10-19T03:48:32;3.45;;;3.10;;
75402;SDS011;63975;47.538;18.972;2022-10-19T03:51:35;4.78;;;3.70;;
75402;SDS011;63975;47.538;18.972;2022-10-19T03:54:37;3.40;;;3.10;;
75402;SDS011;63975;47.538;18.972;2022-10-19T03:57:40;4.25;;;3.83;;
75402;SDS011;63975;47.538;18.972;2022-10-19T04:00:42;3.53;;;3.22;;
75402;SDS011;63975;47.538;18.972;2022-10-19T04:03:44;3.55;;;3.22;;
75402;SDS011;63975;47.538;18.972;2022-10-19T04:06:47;4.13;;;3.72;;
75402;SDS011;63975;47.538;18.972;2022-10-19T04:09:54;3.90;;;3.60;;
75402;SDS011;63975;47.538;18.972;2022-10-19T04:12:56;3.92;;;3.35;;
75402;SDS011;63975;47.538;18.972;2022-10-19T04:15:58;4.07;;;3.75;;
75402;SDS011;63975;47.538;18.972;2022-10-19T04:19:00;4.10;;;3.75;;
75402;SDS011;63975;47.538;18.972;2022-10-19T04:22:03;4.30;;;3.90;;
75402;SDS011;63975;47.538;18.972;2022-10-19T04:25:05;3.63;;;3.33;;
75402;SDS011;63975;47.538;18.972;2022-10-19T04:28:08;3.70;;;3.40;;
75402;SDS011;63975;47.538;18.972;2022-10-19T04:31:10;4.13;;;3.72;;
75402;SDS011;63975;47.538;18.972;2022-10-19T04:34:13;4.68;;;4.10;;
75402;SDS011;63975;47.538;18.972;2022-10-19T04:46:16;4.43;;;4.03;;
75402;SDS011;63975;47.538;18.972;2022-10-19T04:55:23;4.30;;;3.80;;
75402;SDS011;63975;47.538;18.972;2022-10-19T04:58:29;5.13;;;4.43;;
75402;SDS011;63975;47.538;18.972;2022-10-19T05:01:31;4.87;;;4.37;;
75402;SDS011;63975;47.538;18.972;2022-10-19T05:04:33;6.35;;;4.57;;
75402;SDS011;63975;47.538;18.972;2022-10-19T05:07:36;5.30;;;4.70;;
75402;SDS011;63975;47.538;18.972;2022-10-19T05:10:38;4.30;;;3.90;;
75402;SDS011;63975;47.538;18.972;2022-10-19T05:13:44;5.22;;;4.30;;
75402;SDS011;63975;47.538;18.972;2022-10-19T05:20:44;5.60;;;4.20;;
75402;SDS011;63975;47.538;18.972;2022-10-19T05:23:49;5.00;;;4.40;;
75402;SDS011;63975;47.538;18.972;2022-10-19T05:27:00;5.32;;;4.70;;
75402;SDS011;63975;47.538;18.972;2022-10-19T05:30:03;6.50;;;4.93;;
75402;SDS011;63975;47.538;18.972;2022-10-19T05:33:07;6.20;;;4.30;;
75402;SDS011;63975;47.538;18.972;2022-10-19T05:36:24;5.38;;;4.88;;
75402;SDS011;63975;47.538;18.972;2022-10-19T05:39:28;6.45;;;4.30;;
75402;SDS011;63975;47.538;18.972;2022-10-19T05:42:33;4.80;;;4.10;;
75402;SDS011;63975;47.538;18.972;2022-10-19T05:45:35;5.25;;;4.55;;
75402;SDS011;63975;47.538;18.972;2022-10-19T05:48:38;6.23;;;4.83;;
75402;SDS011;63975;47.538;18.972;2022-10-19T05:51:41;7.53;;;4.40;;
75402;SDS011;63975;47.538;18.972;2022-10-19T05:54:44;8.20;;;4.80;;
75402;SDS011;63975;47.538;18.972;2022-10-19T05:57:46;5.45;;;3.90;;
75402;SDS011;63975;47.538;18.972;2022-10-19T06:00:56;4.85;;;4.35;;
75402;SDS011;63975;47.538;18.972;2022-10-19T06:04:01;5.07;;;4.50;;
75402;SDS011;63975;47.538;18.972;2022-10-19T06:07:47;5.38;;;4.10;;
75402;SDS011;63975;47.538;18.972;2022-10-19T06:10:49;6.65;;;4.35;;
75402;SDS011;63975;47.538;18.972;2022-10-19T06:13:56;6.07;;;4.70;;
75402;SDS011;63975;47.538;18.972;2022-10-19T06:17:08;6.45;;;4.68;;
75402;SDS011;63975;47.538;18.972;2022-10-19T06:21:18;4.87;;;4.27;;
75402;SDS011;63975;47.538;18.972;2022-10-19T06:24:23;6.22;;;4.85;;
75402;SDS011;63975;47.538;18.972;2022-10-19T06:27:26;5.50;;;4.53;;
75402;SDS011;63975;47.538;18.972;2022-10-19T06:30:28;7.13;;;4.40;;
75402;SDS011;63975;47.538;18.972;2022-10-19T06:33:31;6.75;;;4.80;;
75402;SDS011;63975;47.538;18.972;2022-10-19T06:36:42;8.30;;;4.77;;
75402;SDS011;63975;47.538;18.972;2022-10-19T06:39:44;8.02;;;4.75;;
75402;SDS011;63975;47.538;18.972;2022-10-19T06:42:49;7.25;;;4.95;;
75402;SDS011;63975;47.538;18.972;2022-10-19T06:45:52;6.05;;;4.30;;
75402;SDS011;63975;47.538;18.972;2022-10-19T06:48:57;5.30;;;4.53;;
75402;SDS011;63975;47.538;18.972;2022-10-19T06:52:03;4.90;;;4.43;;
75402;SDS011;63975;47.538;18.972;2022-10-19T06:55:11;8.25;;;4.68;;
75402;SDS011;63975;47.538;18.972;2022-10-19T06:58:14;7.32;;;5.25;;
75402;SDS011;63975;47.538;18.972;2022-10-19T07:01:16;7.03;;;5.47;;
75402;SDS011;63975;47.538;18.972;2022-10-19T07:04:19;6.97;;;4.68;;
75402;SDS011;63975;47.538;18.972;2022-10-19T07:07:40;9.87;;;5.37;;
75402;SDS011;63975;47.538;18.972;2022-10-19T07:10:48;7.97;;;4.63;;
75402;SDS011;63975;47.538;18.972;2022-10-19T07:13:54;7.28;;;4.53;;
75402;SDS011;63975;47.538;18.972;2022-10-19T07:17:00;6.68;;;4.30;;
75402;SDS011;63975;47.538;18.972;2022-10-19T07:20:03;6.50;;;4.45;;
75402;SDS011;63975;47.538;18.972;2022-10-19T07:23:05;8.63;;;4.77;;
75402;SDS011;63975;47.538;18.972;2022-10-19T07:29:22;5.22;;;4.20;;
75402;SDS011;63975;47.538;18.972;2022-10-19T07:32:24;7.55;;;5.00;;
75402;SDS011;63975;47.538;18.972;2022-10-19T07:35:26;7.32;;;4.75;;
75402;SDS011;63975;47.538;18.972;2022-10-19T07:38:32;7.47;;;5.40;;
75402;SDS011;63975;47.538;18.972;2022-10-19T07:41:35;7.35;;;5.03;;
75402;SDS011;63975;47.538;18.972;2022-10-19T08:10:07;5.05;;;4.10;;
75402;SDS011;63975;47.538;18.972;2022-10-19T08:13:10;9.90;;;4.63;;
75402;SDS011;63975;47.538;18.972;2022-10-19T08:16:22;7.37;;;3.63;;
75402;SDS011;63975;47.538;18.972;2022-10-19T08:19:32;6.93;;;4.35;;
75402;SDS011;63975;47.538;18.972;2022-10-19T08:22:34;8.02;;;4.50;;
75402;SDS011;63975;47.538;18.972;2022-10-19T08:33:14;7.90;;;3.77;;
75402;SDS011;63975;47.538;18.972;2022-10-19T08:36:16;8.15;;;3.90;;
75402;SDS011;63975;47.538;18.972;2022-10-19T08:56:52;4.53;;;3.90;;
75402;SDS011;63975;47.538;18.972;2022-10-19T09:13:20;7.25;;;3.53;;
75402;SDS011;63975;47.538;18.972;2022-10-19T09:16:47;9.50;;;3.78;;
75402;SDS011;63975;47.538;18.972;2022-10-19T09:23:28;6.15;;;3.88;;
75402;SDS011;63975;47.538;18.972;2022-10-19T09:26:36;5.53;;;3.70;;
75402;SDS011;63975;47.538;18.972;2022-10-19T09:33:36;5.40;;;3.42;;
75402;SDS011;63975;47.538;18.972;2022-10-19T09:37:01;5.30;;;3.22;;
75402;SDS011;63975;47.538;18.972;2022-10-19T09:44:17;7.27;;;3.47;;
75402;SDS011;63975;47.538;18.972;2022-10-19T09:50:41;4.00;;;3.40;;
75402;SDS011;63975;47.538;18.972;2022-10-19T09:53:58;7.50;;;3.33;;
75402;SDS011;63975;47.538;18.972;2022-10-19T09:57:26;4.78;;;2.80;;
75402;SDS011;63975;47.538;18.972;2022-10-19T10:23:12;3.10;;;2.80;;
75402;SDS011;63975;47.538;18.972;2022-10-19T10:26:03;6.45;;;2.88;;
75402;SDS011;63975;47.538;18.972;2022-10-19T10:42:44;7.43;;;2.67;;
75402;SDS011;63975;47.538;18.972;2022-10-19T11:02:30;6.53;;;2.70;;
75402;SDS011;63975;47.538;18.972;2022-10-19T11:05:57;8.60;;;2.60;;
75402;SDS011;63975;47.538;18.972;2022-10-19T11:55:22;4.43;;;2.20;;
75402;SDS011;63975;47.538;18.972;2022-10-19T11:59:03;3.53;;;2.20;;
75402;SDS011;63975;47.538;18.972;2022-10-19T12:10:17;4.10;;;2.13;;
75402;SDS011;63975;47.538;18.972;2022-10-19T12:13:36;7.07;;;2.20;;
75402;SDS011;63975;47.538;18.972;2022-10-19T12:21:35;4.07;;;2.25;;
75402;SDS011;63975;47.538;18.972;2022-10-19T12:24:44;4.27;;;2.03;;
75402;SDS011;63975;47.538;18.972;2022-10-19T12:27:47;4.38;;;2.00;;
75402;SDS011;63975;47.538;18.972;2022-10-19T12:30:51;3.50;;;2.05;;
75402;SDS011;63975;47.538;18.972;2022-10-19T12:34:06;5.13;;;1.83;;
75402;SDS011;63975;47.538;18.972;2022-10-19T12:37:31;5.32;;;2.10;;
75402;SDS011;63975;47.538;18.972;2022-10-19T12:40:49;4.73;;;2.10;;
75402;SDS011;63975;47.538;18.972;2022-10-19T12:47:35;6.75;;;1.58;;
75402;SDS011;63975;47.538;18.972;2022-10-19T12:54:23;5.22;;;1.67;;
75402;SDS011;63975;47.538;18.972;2022-10-19T13:01:59;4.25;;;1.17;;
75402;SDS011;63975;47.538;18.972;2022-10-19T13:04:35;4.75;;;1.70;;
75402;SDS011;63975;47.538;18.972;2022-10-19T13:07:41;3.22;;;1.55;;
75402;SDS011;63975;47.538;18.972;2022-10-19T13:11:07;4.07;;;1.83;;
75402;SDS011;63975;47.538;18.972;2022-10-19T13:20:50;4.53;;;1.80;;
75402;SDS011;63975;47.538;18.972;2022-10-19T13:23:54;4.85;;;1.70;;
75402;SDS011;63975;47.538;18.972;2022-10-19T13:27:25;3.65;;;1.83;;
75402;SDS011;63975;47.538;18.972;2022-10-19T13:33:41;2.10;;;1.50;;
75402;SDS011;63975;47.538;18.972;2022-10-19T13:44:28;4.57;;;2.10;;
75402;SDS011;63975;47.538;18.972;2022-10-19T13:48:07;8.83;;;2.00;;
75402;SDS011;63975;47.538;18.972;2022-10-19T14:01:44;5.18;;;2.00;;
75402;SDS011;63975;47.538;18.972;2022-10-19T14:05:40;12.23;;;2.33;;
75402;SDS011;63975;47.538;18.972;2022-10-19T14:12:07;7.03;;;2.42;;
75402;SDS011;63975;47.538;18.972;2022-10-19T14:15:30;4.32;;;1.77;;
75402;SDS011;63975;47.538;18.972;2022-10-19T14:18:34;7.50;;;1.88;;
75402;SDS011;63975;47.538;18.972;2022-10-19T14:21:40;8.43;;;1.60;;
75402;SDS011;63975;47.538;18.972;2022-10-19T14:24:43;5.95;;;2.00;;
75402;SDS011;63975;47.538;18.972;2022-10-19T14:27:45;6.72;;;1.95;;
75402;SDS011;63975;47.538;18.972;2022-10-19T14:34:07;9.93;;;2.70;;
75402;SDS011;63975;47.538;18.972;2022-10-19T14:37:22;2.00;;;1.60;;
75402;SDS011;63975;47.538;18.972;2022-10-19T14:40:28;5.05;;;1.88;;
75402;SDS011;63975;47.538;18.972;2022-10-19T14:43:32;5.57;;;2.05;;
75402;SDS011;63975;47.538;18.972;2022-10-19T14:46:35;5.75;;;1.75;;
75402;SDS011;63975;47.538;18.972;2022-10-19T14:49:38;4.65;;;1.80;;
75402;SDS011;63975;47.538;18.972;2022-10-19T14:52:40;6.03;;;1.57;;
75402;SDS011;63975;47.538;18.972;2022-10-19T14:55:43;4.47;;;1.70;;
75402;SDS011;63975;47.538;18.972;2022-10-19T14:58:51;2.95;;;1.50;;
75402;SDS011;63975;47.538;18.972;2022-10-19T15:02:01;5.57;;;1.80;;
75402;SDS011;63975;47.538;18.972;2022-10-19T15:05:23;6.32;;;2.13;;
75402;SDS011;63975;47.538;18.972;2022-10-19T15:08:33;6.17;;;2.13;;
75402;SDS011;63975;47.538;18.972;2022-10-19T15:11:40;4.03;;;1.83;;
75402;SDS011;63975;47.538;18.972;2022-10-19T15:14:50;4.15;;;2.30;;
75402;SDS011;63975;47.538;18.972;2022-10-19T15:21:10;3.85;;;1.75;;
75402;SDS011;63975;47.538;18.972;2022-10-19T15:24:27;3.47;;;1.80;;
75402;SDS011;63975;47.538;18.972;2022-10-19T15:30:40;4.45;;;2.05;;
75402;SDS011;63975;47.538;18.972;2022-10-19T15:33:43;2.25;;;1.40;;
75402;SDS011;63975;47.538;18.972;2022-10-19T15:36:53;3.40;;;1.80;;
75402;SDS011;63975;47.538;18.972;2022-10-19T15:40:00;5.40;;;1.50;;
75402;SDS011;63975;47.538;18.972;2022-10-19T15:49:58;2.38;;;1.75;;
75402;SDS011;63975;47.538;18.972;2022-10-19T15:53:07;2.33;;;2.13;;
75402;SDS011;63975;47.538;18.972;2022-10-19T15:56:16;3.83;;;1.57;;
75402;SDS011;63975;47.538;18.972;2022-10-19T15:59:20;3.60;;;1.80;;
75402;SDS011;63975;47.538;18.972;2022-10-19T16:02:24;3.20;;;2.00;;
75402;SDS011;63975;47.538;18.972;2022-10-19T16:05:27;3.35;;;2.10;;
75402;SDS011;63975;47.538;18.972;2022-10-19T16:08:30;2.50;;;1.83;;
75402;SDS011;63975;47.538;18.972;2022-10-19T16:11:32;2.77;;;1.30;;
75402;SDS011;63975;47.538;18.972;2022-10-19T16:14:38;3.20;;;1.42;;
75402;SDS011;63975;47.538;18.972;2022-10-19T16:17:41;3.20;;;1.80;;
75402;SDS011;63975;47.538;18.972;2022-10-19T16:20:48;4.20;;;1.63;;
75402;SDS011;63975;47.538;18.972;2022-10-19T16:23:53;1.98;;;1.75;;
75402;SDS011;63975;47.538;18.972;2022-10-19T16:26:56;2.60;;;1.77;;
75402;SDS011;63975;47.538;18.972;2022-10-19T16:29:58;3.00;;;1.67;;
75402;SDS011;63975;47.538;18.972;2022-10-19T16:33:00;1.90;;;1.60;;
75402;SDS011;63975;47.538;18.972;2022-10-19T16:36:04;6.55;;;1.80;;
75402;SDS011;63975;47.538;18.972;2022-10-19T16:39:07;2.58;;;1.80;;
75402;SDS011;63975;47.538;18.972;2022-10-19T16:42:11;2.53;;;1.80;;
75402;SDS011;63975;47.538;18.972;2022-10-19T16:45:13;2.00;;;1.48;;
75402;SDS011;63975;47.538;18.972;2022-10-19T16:48:16;2.38;;;1.40;;
75402;SDS011;63975;47.538;18.972;2022-10-19T16:51:46;3.63;;;2.08;;
75402;SDS011;63975;47.538;18.972;2022-10-19T16:54:47;3.38;;;1.98;;
75402;SDS011;63975;47.538;18.972;2022-10-19T16:57:53;3.23;;;1.70;;
75402;SDS011;63975;47.538;18.972;2022-10-19T17:00:57;2.88;;;2.00;;
75402;SDS011;63975;47.538;18.972;2022-10-19T17:04:02;2.38;;;1.75;;
75402;SDS011;63975;47.538;18.972;2022-10-19T17:07:04;1.90;;;1.40;;
75402;SDS011;63975;47.538;18.972;2022-10-19T17:10:11;3.13;;;1.63;;
75402;SDS011;63975;47.538;18.972;2022-10-19T17:13:15;3.83;;;1.60;;
75402;SDS011;63975;47.538;18.972;2022-10-19T17:16:18;1.58;;;1.48;;
75402;SDS011;63975;47.538;18.972;2022-10-19T17:19:22;2.85;;;2.03;;
75402;SDS011;63975;47.538;18.972;2022-10-19T17:22:35;4.13;;;1.88;;
75402;SDS011;63975;47.538;18.972;2022-10-19T17:25:44;1.80;;;1.70;;
75402;SDS011;63975;47.538;18.972;2022-10-19T17:28:55;2.63;;;1.50;;
75402;SDS011;63975;47.538;18.972;2022-10-19T17:32:03;2.22;;;1.60;;
75402;SDS011;63975;47.538;18.972;2022-10-19T17:35:05;2.83;;;1.92;;
75402;SDS011;63975;47.538;18.972;2022-10-19T17:38:11;2.78;;;1.80;;
75402;SDS011;63975;47.538;18.972;2022-10-19T17:41:16;2.10;;;1.38;;
75402;SDS011;63975;47.538;18.972;2022-10-19T17:44:20;2.27;;;1.60;;
75402;SDS011;63975;47.538;18.972;2022-10-19T17:47:26;2.50;;;1.77;;
75402;SDS011;63975;47.538;18.972;2022-10-19T17:50:29;1.73;;;1.63;;
75402;SDS011;63975;47.538;18.972;2022-10-19T17:53:42;2.92;;;1.80;;
75402;SDS011;63975;47.538;18.972;2022-10-19T17:56:49;2.42;;;1.80;;
75402;SDS011;63975;47.538;18.972;2022-10-19T17:59:52;2.47;;;1.83;;
75402;SDS011;63975;47.538;18.972;2022-10-19T18:02:55;2.25;;;1.67;;
75402;SDS011;63975;47.538;18.972;2022-10-19T18:05:59;1.70;;;1.60;;
75402;SDS011;63975;47.538;18.972;2022-10-19T18:09:11;1.98;;;1.60;;
75402;SDS011;63975;47.538;18.972;2022-10-19T18:12:14;2.10;;;1.90;;
75402;SDS011;63975;47.538;18.972;2022-10-19T18:15:16;2.17;;;1.67;;
75402;SDS011;63975;47.538;18.972;2022-10-19T18:18:19;2.47;;;1.60;;
75402;SDS011;63975;47.538;18.972;2022-10-19T18:21:28;2.83;;;1.58;;
75402;SDS011;63975;47.538;18.972;2022-10-19T18:24:32;1.50;;;1.40;;
75402;SDS011;63975;47.538;18.972;2022-10-19T18:27:35;1.65;;;1.52;;
75402;SDS011;63975;47.538;18.972;2022-10-19T18:30:38;1.87;;;1.60;;
75402;SDS011;63975;47.538;18.972;2022-10-19T18:33:41;2.50;;;1.70;;
75402;SDS011;63975;47.538;18.972;2022-10-19T18:36:46;1.50;;;1.40;;
75402;SDS011;63975;47.538;18.972;2022-10-19T18:39:49;2.00;;;1.70;;
75402;SDS011;63975;47.538;18.972;2022-10-19T18:42:51;2.10;;;1.70;;
75402;SDS011;63975;47.538;18.972;2022-10-19T18:45:55;1.60;;;1.50;;
75402;SDS011;63975;47.538;18.972;2022-10-19T18:48:59;1.80;;;1.70;;
75402;SDS011;63975;47.538;18.972;2022-10-19T18:52:02;3.45;;;1.77;;
75402;SDS011;63975;47.538;18.972;2022-10-19T18:55:05;1.83;;;1.60;;
75402;SDS011;63975;47.538;18.972;2022-10-19T18:58:08;2.47;;;1.67;;
75402;SDS011;63975;47.538;18.972;2022-10-19T19:01:15;2.17;;;1.20;;
75402;SDS011;63975;47.538;18.972;2022-10-19T19:04:19;1.63;;;1.52;;
75402;SDS011;63975;47.538;18.972;2022-10-19T19:07:21;1.98;;;1.80;;
75402;SDS011;63975;47.538;18.972;2022-10-19T19:10:23;1.83;;;1.42;;
75402;SDS011;63975;47.538;18.972;2022-10-19T19:13:26;2.03;;;1.70;;
75402;SDS011;63975;47.538;18.972;2022-10-19T19:16:30;2.30;;;1.50;;
75402;SDS011;63975;47.538;18.972;2022-10-19T19:19:34;1.80;;;1.38;;
75402;SDS011;63975;47.538;18.972;2022-10-19T19:22:37;2.50;;;1.58;;
75402;SDS011;63975;47.538;18.972;2022-10-19T19:25:45;1.83;;;1.60;;
75402;SDS011;63975;47.538;18.972;2022-10-19T19:28:48;1.83;;;1.73;;
75402;SDS011;63975;47.538;18.972;2022-10-19T19:31:52;1.90;;;1.70;;
75402;SDS011;63975;47.538;18.972;2022-10-19T19:34:54;2.30;;;1.75;;
75402;SDS011;63975;47.538;18.972;2022-10-19T19:37:57;1.92;;;1.83;;
75402;SDS011;63975;47.538;18.972;2022-10-19T19:41:02;2.42;;;1.63;;
75402;SDS011;63975;47.538;18.972;2022-10-19T19:44:05;1.83;;;1.70;;
75402;SDS011;63975;47.538;18.972;2022-10-19T19:47:07;1.67;;;1.57;;
75402;SDS011;63975;47.538;18.972;2022-10-19T19:50:10;1.65;;;1.55;;
75402;SDS011;63975;47.538;18.972;2022-10-19T19:53:12;2.25;;;1.55;;
75402;SDS011;63975;47.538;18.972;2022-10-19T19:56:15;1.80;;;1.40;;
75402;SDS011;63975;47.538;18.972;2022-10-19T19:59:18;3.05;;;1.60;;
75402;SDS011;63975;47.538;18.972;2022-10-19T20:02:20;1.93;;;1.80;;
75402;SDS011;63975;47.538;18.972;2022-10-19T20:05:23;2.28;;;1.40;;
75402;SDS011;63975;47.538;18.972;2022-10-19T20:08:26;2.00;;;1.80;;
75402;SDS011;63975;47.538;18.972;2022-10-19T20:11:29;1.52;;;1.40;;
75402;SDS011;63975;47.538;18.972;2022-10-19T20:14:31;1.90;;;1.80;;
75402;SDS011;63975;47.538;18.972;2022-10-19T20:17:33;1.40;;;1.30;;
75402;SDS011;63975;47.538;18.972;2022-10-19T20:20:36;1.90;;;1.75;;
75402;SDS011;63975;47.538;18.972;2022-10-19T20:23:44;1.83;;;1.73;;
75402;SDS011;63975;47.538;18.972;2022-10-19T20:26:47;3.38;;;1.60;;
75402;SDS011;63975;47.538;18.972;2022-10-19T20:29:50;1.92;;;1.83;;
75402;SDS011;63975;47.538;18.972;2022-10-19T20:32:53;1.83;;;1.60;;
75402;SDS011;63975;47.538;18.972;2022-10-19T20:35:55;1.63;;;1.45;;
75402;SDS011;63975;47.538;18.972;2022-10-19T20:38:58;1.38;;;1.27;;
75402;SDS011;63975;47.538;18.972;2022-10-19T20:42:01;1.48;;;1.38;;
75402;SDS011;63975;47.538;18.972;2022-10-19T20:45:03;2.55;;;1.73;;
75402;SDS011;63975;47.538;18.972;2022-10-19T20:48:06;1.90;;;1.63;;
75402;SDS011;63975;47.538;18.972;2022-10-19T20:51:19;2.63;;;1.50;;
75402;SDS011;63975;47.538;18.972;2022-10-19T20:54:33;2.22;;;1.90;;
75402;SDS011;63975;47.538;18.972;2022-10-19T20:57:36;2.17;;;1.80;;
75402;SDS011;63975;47.538;18.972;2022-10-19T21:00:38;2.30;;;1.77;;
75402;SDS011;63975;47.538;18.972;2022-10-19T21:03:51;1.60;;;1.50;;
75402;SDS011;63975;47.538;18.972;2022-10-19T21:06:54;2.38;;;1.60;;
75402;SDS011;63975;47.538;18.972;2022-10-19T21:09:57;1.90;;;1.73;;
75402;SDS011;63975;47.538;18.972;2022-10-19T21:12:59;1.40;;;1.30;;
75402;SDS011;63975;47.538;18.972;2022-10-19T21:16:11;3.00;;;1.70;;
75402;SDS011;63975;47.538;18.972;2022-10-19T21:19:16;2.43;;;1.57;;
75402;SDS011;63975;47.538;18.972;2022-10-19T21:22:20;1.92;;;1.60;;
75402;SDS011;63975;47.538;18.972;2022-10-19T21:25:22;1.63;;;1.52;;
75402;SDS011;63975;47.538;18.972;2022-10-19T21:28:26;1.75;;;1.65;;
75402;SDS011;63975;47.538;18.972;2022-10-19T21:31:29;1.92;;;1.63;;
75402;SDS011;63975;47.538;18.972;2022-10-19T21:34:31;2.20;;;1.50;;
75402;SDS011;63975;47.538;18.972;2022-10-19T21:37:34;1.27;;;1.10;;
75402;SDS011;63975;47.538;18.972;2022-10-19T21:40:37;1.65;;;1.45;;
75402;SDS011;63975;47.538;18.972;2022-10-19T21:43:39;1.95;;;1.52;;
75402;SDS011;63975;47.538;18.972;2022-10-19T21:46:41;2.00;;;1.80;;
75402;SDS011;63975;47.538;18.972;2022-10-19T21:49:46;2.13;;;1.70;;
75402;SDS011;63975;47.538;18.972;2022-10-19T21:52:48;2.28;;;1.95;;
75402;SDS011;63975;47.538;18.972;2022-10-19T21:55:51;1.75;;;1.65;;
75402;SDS011;63975;47.538;18.972;2022-10-19T21:58:54;1.75;;;1.65;;
75402;SDS011;63975;47.538;18.972;2022-10-19T22:01:57;2.30;;;2.10;;
75402;SDS011;63975;47.538;18.972;2022-10-19T22:05:00;1.50;;;1.40;;
75402;SDS011;63975;47.538;18.972;2022-10-19T22:08:03;2.17;;;1.50;;
75402;SDS011;63975;47.538;18.972;2022-10-19T22:11:09;2.10;;;1.58;;
75402;SDS011;63975;47.538;18.972;2022-10-19T22:14:12;2.22;;;1.75;;
75402;SDS011;63975;47.538;18.972;2022-10-19T22:17:16;1.80;;;1.52;;
75402;SDS011;63975;47.538;18.972;2022-10-19T22:20:18;2.40;;;1.60;;
75402;SDS011;63975;47.538;18.972;2022-10-19T22:23:20;2.17;;;1.67;;
75402;SDS011;63975;47.538;18.972;2022-10-19T22:26:24;2.13;;;1.80;;
75402;SDS011;63975;47.538;18.972;2022-10-19T22:29:28;1.90;;;1.15;;
75402;SDS011;63975;47.538;18.972;2022-10-19T22:32:30;1.70;;;1.60;;
75402;SDS011;63975;47.538;18.972;2022-10-19T22:35:33;1.60;;;1.50;;
75402;SDS011;63975;47.538;18.972;2022-10-19T22:38:35;1.50;;;1.40;;
75402;SDS011;63975;47.538;18.972;2022-10-19T22:41:37;2.00;;;1.30;;
75402;SDS011;63975;47.538;18.972;2022-10-19T22:44:40;1.80;;;1.50;;
75402;SDS011;63975;47.538;18.972;2022-10-19T22:47:42;2.10;;;1.80;;
75402;SDS011;63975;47.538;18.972;2022-10-19T22:50:44;1.87;;;1.40;;
75402;SDS011;63975;47.538;18.972;2022-10-19T22:53:47;2.40;;;1.67;;
75402;SDS011;63975;47.538;18.972;2022-10-19T22:56:49;2.22;;;1.60;;
75402;SDS011;63975;47.538;18.972;2022-10-19T22:59:52;1.92;;;1.50;;
75402;SDS011;63975;47.538;18.972;2022-10-19T23:02:54;1.98;;;1.80;;
75402;SDS011;63975;47.538;18.972;2022-10-19T23:05:56;2.73;;;1.60;;
75402;SDS011;63975;47.538;18.972;2022-10-19T23:08:59;1.33;;;1.23;;
75402;SDS011;63975;47.538;18.972;2022-10-19T23:12:01;1.52;;;1.30;;
75402;SDS011;63975;47.538;18.972;2022-10-19T23:15:04;1.67;;;1.58;;
75402;SDS011;63975;47.538;18.972;2022-10-19T23:18:07;2.20;;;1.48;;